sensor_id;sensor_type;location;lat;lon;timestamp;pressure;altitude;pressure_sealevel;temperature;humidity
48614;BME280;34408;51.426;5.444;2022-09-09T00:00:58;100696.66;;;20.15;55.46
48614;BME280;34408;51.426;5.444;2022-09-09T00:03:34;100702.41;;;20.14;55.27
48614;BME280;34408;51.426;5.444;2022-09-09T00:06:09;100701.59;;;20.13;55.23
48614;BME280;34408;51.426;5.444;2022-09-09T00:08:53;100700.25;;;20.11;55.23
48614;BME280;34408;51.426;5.444;2022-09-09T00:11:27;100688.81;;;20.09;55.41
48614;BME280;34408;51.426;5.444;2022-09-09T00:13:58;100697.28;;;20.07;55.24
48614;BME280;34408;51.426;5.444;2022-09-09T00:16:32;100691.03;;;20.07;55.34
48614;BME280;34408;51.426;5.444;2022-09-09T00:19:06;100696.78;;;20.05;55.58
48614;BME280;34408;51.426;5.444;2022-09-09T00:21:36;100690.50;;;20.05;55.33
48614;BME280;34408;51.426;5.444;2022-09-09T00:24:10;100686.16;;;20.04;55.54
48614;BME280;34408;51.426;5.444;2022-09-09T00:26:42;100678.53;;;20.01;55.35
48614;BME280;34408;51.426;5.444;2022-09-09T00:29:21;100676.63;;;20.01;55.43
48614;BME280;34408;51.426;5.444;2022-09-09T00:31:55;100683.19;;;20.00;55.30
48614;BME280;34408;51.426;5.444;2022-09-09T00:34:27;100679.63;;;20.00;55.54
48614;BME280;34408;51.426;5.444;2022-09-09T00:36:56;100676.09;;;19.99;55.53
48614;BME280;34408;51.426;5.444;2022-09-09T00:39:29;100675.28;;;19.99;55.45
48614;BME280;34408;51.426;5.444;2022-09-09T00:42:10;100675.56;;;19.97;55.28
48614;BME280;34408;51.426;5.444;2022-09-09T00:44:51;100672.03;;;19.97;55.37
48614;BME280;34408;51.426;5.444;2022-09-09T00:47:40;100673.13;;;19.96;55.44
48614;BME280;34408;51.426;5.444;2022-09-09T00:50:21;100667.97;;;19.94;55.44
48614;BME280;34408;51.426;5.444;2022-09-09T00:53:02;100676.16;;;19.94;55.60
48614;BME280;34408;51.426;5.444;2022-09-09T00:55:39;100665.81;;;19.91;55.65
48614;BME280;34408;51.426;5.444;2022-09-09T00:58:09;100664.19;;;19.90;55.51
48614;BME280;34408;51.426;5.444;2022-09-09T01:00:42;100662.28;;;19.91;55.48
48614;BME280;34408;51.426;5.444;2022-09-09T01:03:19;100658.22;;;19.88;55.54
48614;BME280;34408;51.426;5.444;2022-09-09T01:06:00;100660.13;;;19.88;55.71
48614;BME280;34408;51.426;5.444;2022-09-09T01:08:43;100660.41;;;19.86;55.50
48614;BME280;34408;51.426;5.444;2022-09-09T01:11:19;100658.78;;;19.85;55.87
48614;BME280;34408;51.426;5.444;2022-09-09T01:13:53;100659.88;;;19.84;55.65
48614;BME280;34408;51.426;5.444;2022-09-09T01:16:26;100654.72;;;19.82;55.77
48614;BME280;34408;51.426;5.444;2022-09-09T01:18:57;100663.19;;;19.81;55.74
48614;BME280;34408;51.426;5.444;2022-09-09T01:21:35;100663.47;;;19.79;55.90
48614;BME280;34408;51.426;5.444;2022-09-09T01:24:17;100655.59;;;19.78;55.93
48614;BME280;34408;51.426;5.444;2022-09-09T01:26:48;100652.34;;;19.76;55.60
48614;BME280;34408;51.426;5.444;2022-09-09T01:29:18;100653.13;;;19.76;55.89
48614;BME280;34408;51.426;5.444;2022-09-09T01:31:53;100646.34;;;19.74;55.76
48614;BME280;34408;51.426;5.444;2022-09-09T01:34:23;100650.19;;;19.73;55.86
48614;BME280;34408;51.426;5.444;2022-09-09T01:36:55;100641.47;;;19.71;55.78
48614;BME280;34408;51.426;5.444;2022-09-09T01:39:25;100644.47;;;19.69;55.71
48614;BME280;34408;51.426;5.444;2022-09-09T01:41:56;100644.47;;;19.69;55.52
48614;BME280;34408;51.426;5.444;2022-09-09T01:44:24;100644.78;;;19.68;55.82
48614;BME280;34408;51.426;5.444;2022-09-09T01:46:53;100636.06;;;19.66;55.71
48614;BME280;34408;51.426;5.444;2022-09-09T01:49:20;100636.34;;;19.64;55.71
48614;BME280;34408;51.426;5.444;2022-09-09T01:51:51;100623.59;;;19.60;55.80
48614;BME280;34408;51.426;5.444;2022-09-09T01:54:20;100633.91;;;19.63;55.84
48614;BME280;34408;51.426;5.444;2022-09-09T01:56:58;100627.13;;;19.60;55.84
48614;BME280;34408;51.426;5.444;2022-09-09T01:59:44;100629.03;;;19.60;56.06
48614;BME280;34408;51.426;5.444;2022-09-09T02:02:17;100622.78;;;19.59;55.97
48614;BME280;34408;51.426;5.444;2022-09-09T02:04:48;100620.34;;;19.58;56.10
48614;BME280;34408;51.426;5.444;2022-09-09T02:07:28;100620.34;;;19.58;55.96
48614;BME280;34408;51.426;5.444;2022-09-09T02:10:02;100625.25;;;19.56;55.84
48614;BME280;34408;51.426;5.444;2022-09-09T02:12:33;100624.44;;;19.55;56.19
48614;BME280;34408;51.426;5.444;2022-09-09T02:15:05;100625.53;;;19.54;55.95
48614;BME280;34408;51.426;5.444;2022-09-09T02:17:36;100628.28;;;19.54;56.14
48614;BME280;34408;51.426;5.444;2022-09-09T02:20:08;100629.38;;;19.53;55.79
48614;BME280;34408;51.426;5.444;2022-09-09T02:22:39;100632.38;;;19.52;56.06
48614;BME280;34408;51.426;5.444;2022-09-09T02:25:10;100626.09;;;19.51;56.10
48614;BME280;34408;51.426;5.444;2022-09-09T02:27:43;100622.53;;;19.50;55.97
48614;BME280;34408;51.426;5.444;2022-09-09T02:30:13;100617.94;;;19.46;55.93
48614;BME280;34408;51.426;5.444;2022-09-09T02:32:43;100618.47;;;19.48;55.98
48614;BME280;34408;51.426;5.444;2022-09-09T02:35:15;100611.41;;;19.47;55.96
48614;BME280;34408;51.426;5.444;2022-09-09T02:37:44;100615.22;;;19.46;55.99
48614;BME280;34408;51.426;5.444;2022-09-09T02:40:14;100622.06;;;19.43;56.01
48614;BME280;34408;51.426;5.444;2022-09-09T02:42:46;100611.97;;;19.44;56.08
48614;BME280;34408;51.426;5.444;2022-09-09T02:45:16;100615.81;;;19.43;55.86
48614;BME280;34408;51.426;5.444;2022-09-09T02:47:50;100610.63;;;19.41;56.00
48614;BME280;34408;51.426;5.444;2022-09-09T02:50:25;100617.19;;;19.40;55.92
48614;BME280;34408;51.426;5.444;2022-09-09T02:53:05;100609.00;;;19.40;55.92
48614;BME280;34408;51.426;5.444;2022-09-09T02:55:38;100611.50;;;19.37;55.93
48614;BME280;34408;51.426;5.444;2022-09-09T02:58:09;100622.91;;;19.39;56.10
48614;BME280;34408;51.426;5.444;2022-09-09T03:00:39;100611.78;;;19.35;56.25
48614;BME280;34408;51.426;5.444;2022-09-09T03:03:07;100615.31;;;19.36;55.76
48614;BME280;34408;51.426;5.444;2022-09-09T03:05:36;100621.06;;;19.34;55.90
48614;BME280;34408;51.426;5.444;2022-09-09T03:08:04;100622.97;;;19.34;55.92
48614;BME280;34408;51.426;5.444;2022-09-09T03:10:33;100615.88;;;19.33;55.97
48614;BME280;34408;51.426;5.444;2022-09-09T03:13:01;100608.81;;;19.32;56.06
48614;BME280;34408;51.426;5.444;2022-09-09T03:15:30;100618.09;;;19.31;55.99
48614;BME280;34408;51.426;5.444;2022-09-09T03:17:58;100619.19;;;19.30;55.88
48614;BME280;34408;51.426;5.444;2022-09-09T03:20:27;100625.72;;;19.29;55.95
48614;BME280;34408;51.426;5.444;2022-09-09T03:22:55;100622.19;;;19.28;55.96
48614;BME280;34408;51.426;5.444;2022-09-09T03:25:24;100630.94;;;19.25;56.13
48614;BME280;34408;51.426;5.444;2022-09-09T03:27:52;100629.84;;;19.26;56.06
48614;BME280;34408;51.426;5.444;2022-09-09T03:30:20;100627.41;;;19.25;56.15
48614;BME280;34408;51.426;5.444;2022-09-09T03:32:49;100634.75;;;19.24;56.32
48614;BME280;34408;51.426;5.444;2022-09-09T03:35:18;100632.31;;;19.23;56.06
48614;BME280;34408;51.426;5.444;2022-09-09T03:37:46;100631.50;;;19.22;56.08
48614;BME280;34408;51.426;5.444;2022-09-09T03:40:14;100619.78;;;19.22;56.35
48614;BME280;34408;51.426;5.444;2022-09-09T03:42:42;100630.97;;;19.20;56.17
48614;BME280;34408;51.426;5.444;2022-09-09T03:45:10;100628.25;;;19.20;56.15
48614;BME280;34408;51.426;5.444;2022-09-09T03:47:38;100632.06;;;19.19;56.32
48614;BME280;34408;51.426;5.444;2022-09-09T03:50:08;100634.00;;;19.18;56.37
48614;BME280;34408;51.426;5.444;2022-09-09T03:52:38;100632.34;;;19.17;56.53
48614;BME280;34408;51.426;5.444;2022-09-09T03:55:07;100629.91;;;19.16;56.18
48614;BME280;34408;51.426;5.444;2022-09-09T03:57:35;100626.38;;;19.15;56.24
48614;BME280;34408;51.426;5.444;2022-09-09T04:00:04;100629.38;;;19.14;56.32
48614;BME280;34408;51.426;5.444;2022-09-09T04:02:32;100628.56;;;19.13;56.41
48614;BME280;34408;51.426;5.444;2022-09-09T04:05:00;100629.38;;;19.14;56.24
48614;BME280;34408;51.426;5.444;2022-09-09T04:07:29;100625.03;;;19.13;56.15
48614;BME280;34408;51.426;5.444;2022-09-09T04:09:57;100626.13;;;19.12;56.13
48614;BME280;34408;51.426;5.444;2022-09-09T04:12:25;100621.50;;;19.12;56.16
48614;BME280;34408;51.426;5.444;2022-09-09T04:14:52;100615.25;;;19.12;56.10
48614;BME280;34408;51.426;5.444;2022-09-09T04:17:20;100616.34;;;19.11;56.21
48614;BME280;34408;51.426;5.444;2022-09-09T04:19:48;100618.25;;;19.10;56.34
48614;BME280;34408;51.426;5.444;2022-09-09T04:22:15;100618.25;;;19.10;56.11
48614;BME280;34408;51.426;5.444;2022-09-09T04:24:44;100614.72;;;19.10;56.02
48614;BME280;34408;51.426;5.444;2022-09-09T04:27:14;100613.91;;;19.09;56.14
48614;BME280;34408;51.426;5.444;2022-09-09T04:29:42;100614.19;;;19.08;56.30
48614;BME280;34408;51.426;5.444;2022-09-09T04:32:09;100615.81;;;19.09;56.19
48614;BME280;34408;51.426;5.444;2022-09-09T04:34:37;100602.47;;;19.07;56.12
48614;BME280;34408;51.426;5.444;2022-09-09T04:37:05;100610.97;;;19.06;56.16
48614;BME280;34408;51.426;5.444;2022-09-09T04:39:33;100603.59;;;19.06;56.28
48614;BME280;34408;51.426;5.444;2022-09-09T04:42:03;100601.97;;;19.05;56.09
48614;BME280;34408;51.426;5.444;2022-09-09T04:44:31;100605.78;;;19.04;56.29
48614;BME280;34408;51.426;5.444;2022-09-09T04:46:58;100603.88;;;19.05;56.15
48614;BME280;34408;51.426;5.444;2022-09-09T04:49:26;100603.06;;;19.04;56.25
48614;BME280;34408;51.426;5.444;2022-09-09T04:51:53;100601.44;;;19.03;56.09
48614;BME280;34408;51.426;5.444;2022-09-09T04:54:22;100598.72;;;19.03;56.03
48614;BME280;34408;51.426;5.444;2022-09-09T04:56:49;100596.00;;;19.03;56.30
48614;BME280;34408;51.426;5.444;2022-09-09T04:59:19;100601.72;;;19.02;56.38
48614;BME280;34408;51.426;5.444;2022-09-09T05:01:46;100590.03;;;19.01;56.36
48614;BME280;34408;51.426;5.444;2022-09-09T05:04:14;100596.28;;;19.02;56.12
48614;BME280;34408;51.426;5.444;2022-09-09T05:06:42;100591.94;;;19.01;56.44
48614;BME280;34408;51.426;5.444;2022-09-09T05:09:10;100593.03;;;19.00;56.35
48614;BME280;34408;51.426;5.444;2022-09-09T05:11:38;100594.94;;;18.99;56.24
48614;BME280;34408;51.426;5.444;2022-09-09T05:14:05;100590.59;;;18.98;56.23
48614;BME280;34408;51.426;5.444;2022-09-09T05:16:34;100580.50;;;18.99;56.17
48614;BME280;34408;51.426;5.444;2022-09-09T05:19:02;100588.16;;;18.97;56.38
48614;BME280;34408;51.426;5.444;2022-09-09T05:21:30;100592.50;;;18.98;56.78
48614;BME280;34408;51.426;5.444;2022-09-09T05:23:58;100584.31;;;18.98;56.39
48614;BME280;34408;51.426;5.444;2022-09-09T05:26:26;100589.78;;;18.98;56.46
48614;BME280;34408;51.426;5.444;2022-09-09T05:28:55;100589.78;;;18.98;56.60
48614;BME280;34408;51.426;5.444;2022-09-09T05:31:23;100592.78;;;18.96;56.53
48614;BME280;34408;51.426;5.444;2022-09-09T05:33:55;100590.06;;;18.96;56.46
48614;BME280;34408;51.426;5.444;2022-09-09T05:36:23;100590.34;;;18.95;56.57
48614;BME280;34408;51.426;5.444;2022-09-09T05:38:51;100594.97;;;18.94;56.63
48614;BME280;34408;51.426;5.444;2022-09-09T05:41:20;100603.44;;;18.93;56.65
48614;BME280;34408;51.426;5.444;2022-09-09T05:43:49;100599.88;;;18.92;56.60
48614;BME280;34408;51.426;5.444;2022-09-09T05:46:18;100597.97;;;18.93;56.64
48614;BME280;34408;51.426;5.444;2022-09-09T05:48:47;100601.81;;;18.92;56.53
48614;BME280;34408;51.426;5.444;2022-09-09T05:51:20;100606.38;;;19.01;56.37
48614;BME280;34408;51.426;5.444;2022-09-09T05:53:48;100610.22;;;18.95;56.40
48614;BME280;34408;51.426;5.444;2022-09-09T05:56:18;100602.66;;;18.87;56.65
48614;BME280;34408;51.426;5.444;2022-09-09T05:58:46;100612.16;;;18.90;56.83
48614;BME280;34408;51.426;5.444;2022-09-09T06:01:16;100609.44;;;18.90;56.68
48614;BME280;34408;51.426;5.444;2022-09-09T06:03:45;100607.81;;;18.89;56.83
48614;BME280;34408;51.426;5.444;2022-09-09T06:06:14;100617.06;;;18.88;57.40
48614;BME280;34408;51.426;5.444;2022-09-09T06:08:45;100609.44;;;18.90;56.94
48614;BME280;34408;51.426;5.444;2022-09-09T06:11:14;100608.63;;;18.89;57.06
48614;BME280;34408;51.426;5.444;2022-09-09T06:13:43;100609.16;;;18.91;56.92
48614;BME280;34408;51.426;5.444;2022-09-09T06:16:12;100605.34;;;18.92;57.12
48614;BME280;34408;51.426;5.444;2022-09-09T06:18:40;100608.31;;;18.96;58.42
48614;BME280;34408;51.426;5.444;2022-09-09T06:21:11;100602.84;;;18.96;58.35
48614;BME280;34408;51.426;5.444;2022-09-09T06:23:40;100599.31;;;18.95;58.02
48614;BME280;34408;51.426;5.444;2022-09-09T06:26:11;100610.22;;;18.95;58.18
48614;BME280;34408;51.426;5.444;2022-09-09T06:28:39;100608.31;;;18.96;57.87
48614;BME280;34408;51.426;5.444;2022-09-09T06:31:12;100607.22;;;18.97;57.98
48614;BME280;34408;51.426;5.444;2022-09-09T06:33:41;100603.09;;;18.99;58.08
48614;BME280;34408;51.426;5.444;2022-09-09T06:36:11;100603.72;;;19.20;58.29
48614;BME280;34408;51.426;5.444;2022-09-09T06:38:39;100604.34;;;19.12;58.18
48614;BME280;34408;51.426;5.444;2022-09-09T06:41:08;100604.63;;;19.10;58.31
48614;BME280;34408;51.426;5.444;2022-09-09T06:43:37;100604.00;;;19.18;58.64
48614;BME280;34408;51.426;5.444;2022-09-09T06:46:07;100598.03;;;19.16;58.07
48614;BME280;34408;51.426;5.444;2022-09-09T06:48:36;100594.19;;;19.23;58.29
48614;BME280;34408;51.426;5.444;2022-09-09T06:51:04;100589.31;;;19.48;58.75
48614;BME280;34408;51.426;5.444;2022-09-09T06:53:34;100603.84;;;19.39;57.91
48614;BME280;34408;51.426;5.444;2022-09-09T06:56:02;100596.03;;;19.61;57.63
48614;BME280;34408;51.426;5.444;2022-09-09T06:58:45;100593.16;;;19.76;58.12
48614;BME280;34408;51.426;5.444;2022-09-09T07:01:14;100596.94;;;19.52;57.61
48614;BME280;34408;51.426;5.444;2022-09-09T07:03:45;100600.84;;;19.40;58.45
48614;BME280;34408;51.426;5.444;2022-09-09T07:06:15;100600.03;;;19.69;57.84
48614;BME280;34408;51.426;5.444;2022-09-09T07:08:48;100603.22;;;19.47;58.11
48614;BME280;34408;51.426;5.444;2022-09-09T07:11:23;100603.03;;;19.38;58.36
48614;BME280;34408;51.426;5.444;2022-09-09T07:13:53;100603.16;;;19.57;58.22
48614;BME280;34408;51.426;5.444;2022-09-09T07:16:22;100605.81;;;19.91;57.73
48614;BME280;34408;51.426;5.444;2022-09-09T07:18:51;100609.13;;;19.59;57.81
48614;BME280;34408;51.426;5.444;2022-09-09T07:21:21;100603.81;;;19.44;58.34
48614;BME280;34408;51.426;5.444;2022-09-09T07:23:50;100594.00;;;19.43;58.70
48614;BME280;34408;51.426;5.444;2022-09-09T07:26:21;100593.50;;;19.36;58.40
48614;BME280;34408;51.426;5.444;2022-09-09T07:28:49;100593.28;;;19.32;58.79
48614;BME280;34408;51.426;5.444;2022-09-09T07:31:20;100594.38;;;19.31;58.40
48614;BME280;34408;51.426;5.444;2022-09-09T07:33:48;100596.56;;;19.29;58.96
48614;BME280;34408;51.426;5.444;2022-09-09T07:36:17;100595.84;;;19.53;58.08
48614;BME280;34408;51.426;5.444;2022-09-09T07:38:50;100595.59;;;20.02;57.96
48614;BME280;34408;51.426;5.444;2022-09-09T07:41:20;100603.88;;;19.68;57.91
48614;BME280;34408;51.426;5.444;2022-09-09T07:43:49;100600.13;;;19.88;58.06
48614;BME280;34408;51.426;5.444;2022-09-09T07:46:19;100599.84;;;19.60;58.34
48614;BME280;34408;51.426;5.444;2022-09-09T07:48:49;100601.56;;;19.80;57.32
48614;BME280;34408;51.426;5.444;2022-09-09T07:51:20;100596.50;;;20.16;57.39
48614;BME280;34408;51.426;5.444;2022-09-09T07:53:52;100597.03;;;19.94;57.05
48614;BME280;34408;51.426;5.444;2022-09-09T07:56:20;100587.50;;;19.68;57.69
48614;BME280;34408;51.426;5.444;2022-09-09T07:58:50;100591.72;;;19.55;58.08
48614;BME280;34408;51.426;5.444;2022-09-09T08:01:22;100601.19;;;20.34;56.71
48614;BME280;34408;51.426;5.444;2022-09-09T08:03:55;100601.78;;;20.55;55.74
48614;BME280;34408;51.426;5.444;2022-09-09T08:06:26;100607.03;;;20.04;56.99
48614;BME280;34408;51.426;5.444;2022-09-09T08:08:54;100603.38;;;20.56;55.60
48614;BME280;34408;51.426;5.444;2022-09-09T08:11:24;100606.75;;;20.05;57.02
48614;BME280;34408;51.426;5.444;2022-09-09T08:13:53;100601.41;;;19.95;56.91
48614;BME280;34408;51.426;5.444;2022-09-09T08:16:30;100606.22;;;19.79;57.41
48614;BME280;34408;51.426;5.444;2022-09-09T08:18:59;100604.06;;;19.76;57.61
48614;BME280;34408;51.426;5.444;2022-09-09T08:21:28;100606.38;;;19.64;57.78
48614;BME280;34408;51.426;5.444;2022-09-09T08:23:57;100604.50;;;19.60;58.28
48614;BME280;34408;51.426;5.444;2022-09-09T08:26:27;100608.09;;;19.50;58.04
48614;BME280;34408;51.426;5.444;2022-09-09T08:28:57;100606.53;;;19.44;58.29
48614;BME280;34408;51.426;5.444;2022-09-09T08:31:26;100600.84;;;19.40;58.41
48614;BME280;34408;51.426;5.444;2022-09-09T08:33:57;100614.75;;;19.39;58.28
48614;BME280;34408;51.426;5.444;2022-09-09T08:36:28;100608.44;;;19.43;58.70
48614;BME280;34408;51.426;5.444;2022-09-09T08:38:57;100605.66;;;19.54;58.03
48614;BME280;34408;51.426;5.444;2022-09-09T08:41:43;100619.56;;;19.47;58.24
48614;BME280;34408;51.426;5.444;2022-09-09T08:44:23;100610.06;;;19.44;58.16
48614;BME280;34408;51.426;5.444;2022-09-09T08:47:03;100617.72;;;19.42;58.39
48614;BME280;34408;51.426;5.444;2022-09-09T08:49:47;100616.66;;;19.38;58.43
48614;BME280;34408;51.426;5.444;2022-09-09T08:52:21;100616.84;;;19.47;58.39
48614;BME280;34408;51.426;5.444;2022-09-09T08:54:50;100615.81;;;19.43;58.38
48614;BME280;34408;51.426;5.444;2022-09-09T08:57:21;100615.28;;;19.41;58.45
48614;BME280;34408;51.426;5.444;2022-09-09T08:59:53;100627.28;;;19.40;58.42
48614;BME280;34408;51.426;5.444;2022-09-09T09:02:25;100629.19;;;19.39;58.33
48614;BME280;34408;51.426;5.444;2022-09-09T09:05:06;100630.28;;;19.38;58.36
48614;BME280;34408;51.426;5.444;2022-09-09T09:07:52;100635.44;;;19.40;58.79
48614;BME280;34408;51.426;5.444;2022-09-09T09:10:35;100636.78;;;19.42;58.69
48614;BME280;34408;51.426;5.444;2022-09-09T09:13:13;100640.91;;;19.40;58.50
48614;BME280;34408;51.426;5.444;2022-09-09T09:15:44;100640.38;;;19.38;58.35
48614;BME280;34408;51.426;5.444;2022-09-09T09:18:16;100644.47;;;19.35;58.64
48614;BME280;34408;51.426;5.444;2022-09-09T09:20:50;100648.31;;;19.34;58.68
48614;BME280;34408;51.426;5.444;2022-09-09T09:23:24;100658.41;;;19.34;58.48
48614;BME280;34408;51.426;5.444;2022-09-09T09:25:57;100649.41;;;19.33;58.66
48614;BME280;34408;51.426;5.444;2022-09-09T09:28:29;100643.44;;;19.31;58.82
48614;BME280;34408;51.426;5.444;2022-09-09T09:31:03;100639.59;;;19.32;58.59
48614;BME280;34408;51.426;5.444;2022-09-09T09:33:44;100638.50;;;19.33;58.75
48614;BME280;34408;51.426;5.444;2022-09-09T09:36:15;100637.69;;;19.33;58.41
48614;BME280;34408;51.426;5.444;2022-09-09T09:38:55;100639.88;;;19.31;58.56
48614;BME280;34408;51.426;5.444;2022-09-09T09:41:43;100642.59;;;19.31;58.52
48614;BME280;34408;51.426;5.444;2022-09-09T09:44:23;100636.34;;;19.30;58.49
48614;BME280;34408;51.426;5.444;2022-09-09T09:46:51;100629.81;;;19.31;58.41
48614;BME280;34408;51.426;5.444;2022-09-09T09:49:19;100642.59;;;19.31;58.23
48614;BME280;34408;51.426;5.444;2022-09-09T09:51:48;100641.50;;;19.32;58.71
48614;BME280;34408;51.426;5.444;2022-09-09T09:54:22;100642.31;;;19.32;58.59
48614;BME280;34408;51.426;5.444;2022-09-09T09:56:54;100640.41;;;19.33;58.81
48614;BME280;34408;51.426;5.444;2022-09-09T09:59:23;100640.41;;;19.33;58.52
48614;BME280;34408;51.426;5.444;2022-09-09T10:02:18;100644.78;;;19.34;58.64
48614;BME280;34408;51.426;5.444;2022-09-09T10:04:47;100645.88;;;19.33;58.69
48614;BME280;34408;51.426;5.444;2022-09-09T10:07:20;100638.50;;;19.33;58.68
48614;BME280;34408;51.426;5.444;2022-09-09T10:09:53;100645.06;;;19.32;58.64
48614;BME280;34408;51.426;5.444;2022-09-09T10:12:30;100643.13;;;19.33;58.58
48614;BME280;34408;51.426;5.444;2022-09-09T10:15:14;100645.88;;;19.33;58.78
48614;BME280;34408;51.426;5.444;2022-09-09T10:17:54;100643.13;;;19.33;58.74
48614;BME280;34408;51.426;5.444;2022-09-09T10:20:35;100647.78;;;19.32;58.96
48614;BME280;34408;51.426;5.444;2022-09-09T10:23:17;100655.13;;;19.32;59.16
48614;BME280;34408;51.426;5.444;2022-09-09T10:25:59;100662.22;;;19.33;59.25
48614;BME280;34408;51.426;5.444;2022-09-09T10:28:49;100664.13;;;19.32;59.49
48614;BME280;34408;51.426;5.444;2022-09-09T10:31:29;100662.50;;;19.31;59.40
48614;BME280;34408;51.426;5.444;2022-09-09T10:34:12;100672.31;;;19.32;59.42
48614;BME280;34408;51.426;5.444;2022-09-09T10:37:01;100675.03;;;19.32;59.66
48614;BME280;34408;51.426;5.444;2022-09-09T10:39:43;100663.31;;;19.32;59.55
48614;BME280;34408;51.426;5.444;2022-09-09T10:42:22;100667.94;;;19.31;59.44
48614;BME280;34408;51.426;5.444;2022-09-09T10:45:10;100668.75;;;19.32;59.80
48614;BME280;34408;51.426;5.444;2022-09-09T10:48:13;100666.03;;;19.32;59.70
48614;BME280;34408;51.426;5.444;2022-09-09T10:50:55;100664.13;;;19.32;59.82
48614;BME280;34408;51.426;5.444;2022-09-09T10:53:36;100659.50;;;19.33;59.75
48614;BME280;34408;51.426;5.444;2022-09-09T10:56:09;100658.41;;;19.34;59.85
48614;BME280;34408;51.426;5.444;2022-09-09T10:58:43;100653.09;;;19.47;61.10
48614;BME280;34408;51.426;5.444;2022-09-09T11:01:22;100650.41;;;19.42;60.10
48614;BME280;34408;51.426;5.444;2022-09-09T11:04:02;100651.81;;;19.40;60.20
48614;BME280;34408;51.426;5.444;2022-09-09T11:06:39;100665.72;;;19.38;60.38
48614;BME280;34408;51.426;5.444;2022-09-09T11:09:15;100651.47;;;19.46;61.03
48614;BME280;34408;51.426;5.444;2022-09-09T11:11:49;100640.13;;;19.34;60.23
48614;BME280;34408;51.426;5.444;2022-09-09T11:14:22;100663.53;;;19.40;60.74
48614;BME280;34408;51.426;5.444;2022-09-09T11:16:57;100655.63;;;19.39;60.53
48614;BME280;34408;51.426;5.444;2022-09-09T11:19:31;100663.81;;;19.39;60.87
48614;BME280;34408;51.426;5.444;2022-09-09T11:22:04;100654.00;;;19.38;60.67
48614;BME280;34408;51.426;5.444;2022-09-09T11:24:37;100654.28;;;19.36;60.82
48614;BME280;34408;51.426;5.444;2022-09-09T11:27:11;100654.28;;;19.36;60.71
48614;BME280;34408;51.426;5.444;2022-09-09T11:30:05;100646.91;;;19.37;61.28
48614;BME280;34408;51.426;5.444;2022-09-09T11:33:37;100649.66;;;19.37;60.86
48614;BME280;34408;51.426;5.444;2022-09-09T11:36:27;100656.72;;;19.38;61.03
48614;BME280;34408;51.426;5.444;2022-09-09T11:39:02;100648.56;;;19.38;61.03
48614;BME280;34408;51.426;5.444;2022-09-09T11:41:36;100652.09;;;19.38;61.05
48614;BME280;34408;51.426;5.444;2022-09-09T11:44:12;100652.91;;;19.39;61.30
48614;BME280;34408;51.426;5.444;2022-09-09T11:46:41;100659.09;;;19.49;61.55
48614;BME280;34408;51.426;5.444;2022-09-09T11:49:26;100654.19;;;19.52;61.23
48614;BME280;34408;51.426;5.444;2022-09-09T11:51:54;100652.53;;;19.50;61.06
48614;BME280;34408;51.426;5.444;2022-09-09T11:54:29;100654.72;;;19.48;60.99
48614;BME280;34408;51.426;5.444;2022-09-09T11:56:58;100635.16;;;19.41;61.12
48614;BME280;34408;51.426;5.444;2022-09-09T11:59:29;100650.38;;;19.53;61.05
48614;BME280;34408;51.426;5.444;2022-09-09T12:01:59;100649.28;;;19.48;60.96
48614;BME280;34408;51.426;5.444;2022-09-09T12:04:32;100641.38;;;19.47;61.03
48614;BME280;34408;51.426;5.444;2022-09-09T12:07:02;100645.72;;;19.53;61.26
48614;BME280;34408;51.426;5.444;2022-09-09T12:09:39;100636.19;;;19.50;61.06
48614;BME280;34408;51.426;5.444;2022-09-09T12:12:37;100641.91;;;19.49;61.31
48614;BME280;34408;51.426;5.444;2022-09-09T12:15:23;100633.75;;;19.49;60.99
48614;BME280;34408;51.426;5.444;2022-09-09T12:17:56;100633.75;;;19.49;61.35
48614;BME280;34408;51.426;5.444;2022-09-09T12:20:33;100635.38;;;19.50;61.12
48614;BME280;34408;51.426;5.444;2022-09-09T12:23:15;100634.53;;;19.49;61.15
48614;BME280;34408;51.426;5.444;2022-09-09T12:25:55;100636.19;;;19.50;61.12
48614;BME280;34408;51.426;5.444;2022-09-09T12:28:27;100632.63;;;19.50;61.74
48614;BME280;34408;51.426;5.444;2022-09-09T12:31:05;100638.09;;;19.50;61.52
48614;BME280;34408;51.426;5.444;2022-09-09T12:33:38;100634.25;;;19.51;61.67
48614;BME280;34408;51.426;5.444;2022-09-09T12:36:12;100634.00;;;19.53;61.39
48614;BME280;34408;51.426;5.444;2022-09-09T12:38:42;100636.44;;;19.54;61.53
48614;BME280;34408;51.426;5.444;2022-09-09T12:41:19;100619.56;;;19.52;61.39
48614;BME280;34408;51.426;5.444;2022-09-09T12:43:47;100623.91;;;19.53;61.30
48614;BME280;34408;51.426;5.444;2022-09-09T12:46:25;100620.09;;;19.54;61.29
48614;BME280;34408;51.426;5.444;2022-09-09T12:48:57;100622.81;;;19.54;61.00
48614;BME280;34408;51.426;5.444;2022-09-09T12:51:28;100616.56;;;19.54;61.28
48614;BME280;34408;51.426;5.444;2022-09-09T12:53:56;100618.47;;;19.53;61.08
48614;BME280;34408;51.426;5.444;2022-09-09T12:56:27;100613.81;;;19.54;60.95
48614;BME280;34408;51.426;5.444;2022-09-09T12:58:57;100599.38;;;19.53;61.20
48614;BME280;34408;51.426;5.444;2022-09-09T13:01:28;100614.34;;;19.56;61.12
48614;BME280;34408;51.426;5.444;2022-09-09T13:03:57;100617.91;;;19.56;61.09
48614;BME280;34408;51.426;5.444;2022-09-09T13:06:26;100621.44;;;19.57;60.90
48614;BME280;34408;51.426;5.444;2022-09-09T13:08:56;100614.88;;;19.58;60.98
48614;BME280;34408;51.426;5.444;2022-09-09T13:11:27;100608.31;;;19.59;60.97
48614;BME280;34408;51.426;5.444;2022-09-09T13:13:58;100609.13;;;19.59;60.79
48614;BME280;34408;51.426;5.444;2022-09-09T13:16:30;100605.31;;;19.60;60.91
48614;BME280;34408;51.426;5.444;2022-09-09T13:19:08;100603.41;;;19.61;60.82